Mustafa Dayi — TCZF2 — position and weather

sailwx.info

Track history (hours):
 
Tides and Currents Weather Stations Pressure Air Temp Water Temp Dewpoint Dewpoint Depression Visibility Wind Speed Wind Dir Waves Ship Positions

Mustafa Dayi

Last reported at 2015-Jul-28 00:33 UTC. Time now 2015-Jul-28 01:25 UTC.
Position N 37°27' E 025°58'.

Length 183 m; draft 9 m.

Type: Ship (hazmat cat D). MMSI: 271042433.

Date/timePositionNaut miles runAvg speedWind from/ knotsBaromVisibWave heightAir tempDewpointWater temp
2015-Jul-28 00:33N 37°27' E 025°58'1313.1
2015-Jul-27 23:33N 37°40' E 025°54'  
2015-Jul-24 18:29N 40°28' E 029°03'0 0.0
2015-Jul-24 15:28N 40°28' E 029°03'13 9.3
2015-Jul-24 14:06N 40°30' E 028°47'611.5
2015-Jul-24 13:33N 40°36' E 028°49'1313.0
2015-Jul-24 12:33N 40°41' E 029°04'1313.3
2015-Jul-24 11:33N 40°44' E 029°22'1111.2
2015-Jul-24 10:33N 40°45' E 029°36'1 0.1
2015-Jul-23 17:18N 40°45' E 029°35'911.8
2015-Jul-23 16:33N 40°44' E 029°24'1110.4
2015-Jul-23 15:33N 40°44' E 029°10'1313.3
2015-Jul-23 14:33N 40°46' E 028°52'1211.9
2015-Jul-23 13:33N 40°54' E 028°41'3 0.6
2015-Jul-23 08:05N 40°58' E 028°41'2 0.0
2015-Jul-21 08:28N 40°56' E 028°39'5 5.0
2015-Jul-21 07:32N 40°54' E 028°34'1512.7
2015-Jul-21 06:23N 40°48' E 028°16'1214.3
2015-Jul-21 05:33N 40°46' E 028°01'1514.4
2015-Jul-21 04:32N 40°44' E 027°42'1413.9
2015-Jul-21 03:33N 40°39' E 027°25'3013.6
2015-Jul-21 01:23N 40°27' E 026°49'2413.0
2015-Jul-20 23:31N 40°12' E 026°24'14412.7
2015-Jul-20 12:10N 37°51' E 025°51'913.9
2015-Jul-20 11:33N 37°42' E 025°52'1413.6
2015-Jul-20 10:32N 37°29' E 025°56'1313.7
2015-Jul-20 09:33N 37°20' E 026°09'1414.1
2015-Jul-20 08:32N 37°10' E 026°22'1414.4
2015-Jul-20 07:33N 37°00' E 026°35'1414.1
2015-Jul-20 06:33N 36°49' E 026°45'1414.0
2015-Jul-20 05:33N 36°38' E 026°56'1313.3
2015-Jul-20 04:33N 36°32' E 027°11'1414.4
2015-Jul-20 03:34N 36°31' E 027°28'  
Track history (hours):
 
Tides and Currents Weather Stations Pressure Air Temp Water Temp Dewpoint Dewpoint Depression Visibility Wind Speed Wind Dir Waves Ship Positions

Mustafa Dayi

Last reported at 2015-Jul-28 00:33 UTC. Time now 2015-Jul-28 01:25 UTC.
Position N 37°27' E 025°58'.

Length 183 m; draft 9 m.

Type: Ship (hazmat cat D). MMSI: 271042433.

Date/timePositionNaut miles runAvg speedWind from/ knotsBaromVisibWave heightAir tempDewpointWater temp
2015-Jul-28 00:33N 37°27' E 025°58'1313.1
2015-Jul-27 23:33N 37°40' E 025°54'  
2015-Jul-24 18:29N 40°28' E 029°03'0 0.0
2015-Jul-24 15:28N 40°28' E 029°03'13 9.3
2015-Jul-24 14:06N 40°30' E 028°47'611.5
2015-Jul-24 13:33N 40°36' E 028°49'1313.0
2015-Jul-24 12:33N 40°41' E 029°04'1313.3
2015-Jul-24 11:33N 40°44' E 029°22'1111.2
2015-Jul-24 10:33N 40°45' E 029°36'1 0.1
2015-Jul-23 17:18N 40°45' E 029°35'911.8
2015-Jul-23 16:33N 40°44' E 029°24'1110.4
2015-Jul-23 15:33N 40°44' E 029°10'1313.3
2015-Jul-23 14:33N 40°46' E 028°52'1211.9
2015-Jul-23 13:33N 40°54' E 028°41'3 0.6
2015-Jul-23 08:05N 40°58' E 028°41'2 0.0
2015-Jul-21 08:28N 40°56' E 028°39'5 5.0
2015-Jul-21 07:32N 40°54' E 028°34'1512.7
2015-Jul-21 06:23N 40°48' E 028°16'1214.3
2015-Jul-21 05:33N 40°46' E 028°01'1514.4
2015-Jul-21 04:32N 40°44' E 027°42'1413.9
2015-Jul-21 03:33N 40°39' E 027°25'3013.6
2015-Jul-21 01:23N 40°27' E 026°49'2413.0
2015-Jul-20 23:31N 40°12' E 026°24'14412.7
2015-Jul-20 12:10N 37°51' E 025°51'913.9
2015-Jul-20 11:33N 37°42' E 025°52'1413.6
2015-Jul-20 10:32N 37°29' E 025°56'1313.7
2015-Jul-20 09:33N 37°20' E 026°09'1414.1
2015-Jul-20 08:32N 37°10' E 026°22'1414.4
2015-Jul-20 07:33N 37°00' E 026°35'1414.1
2015-Jul-20 06:33N 36°49' E 026°45'1414.0
2015-Jul-20 05:33N 36°38' E 026°56'1313.3
2015-Jul-20 04:33N 36°32' E 027°11'1414.4
2015-Jul-20 03:34N 36°31' E 027°28'  

Dump ship's entire track history